Conneaut Harbor, Ohio
Current Conditions -  °F | °C
As of 9:53 AM on Friday 19 Dec 2014 (Local Time) from KHZY Reporting Station
Overcast Overcast  
Wind Chill: 24°   Ceiling: 2800
Heat Index: 30°   Visibility: 10mi
Dew Point: 23°   Wind: 6mph
Humidity: 75%   Direction: 340°NNW
Pressure: 30.23"   Gusts: NA
Location:  41.8949°N, 80.5816°W
Report Text: KHZY 191453Z AUTO 34005KT 10SM SCT018 OVC028 M01/M05 A3023 RMK AO2 SLP246 T10111050 51017
Loading
Personal Weather Stations






























Interactive Weather Map New forecast layout! Learn more

10-Day Weather Forecast

Advertisements
Track Severe Weather on mobile